Time;durP1;ratioP1;P1;durP2;ratioP2;P2;SDS_P1;SDS_P2;PMS_P1;PMS_P2;Temp;Humidity;BMP_temperature;BMP_pressure;BME280_temperature;BME280_humidity;BME280_pressure;Samples;Min_cycle;Max_cycle;Signal;HPM_P1;HPM_P2
2023/07/29 00:06:39;;;;;;;2.60;2.38;;;;;;;20.94;100.00;100362.34;21066321;28;20048;-66
2023/07/29 00:16:42;;;;;;;2.40;2.20;;;;;;;20.94;100.00;100358.78;21065644;28;20048;-66
2023/07/29 00:26:44;;;;;;;2.60;2.30;;;;;;;20.93;100.00;100344.41;21065427;28;20106;-66
2023/07/29 00:36:46;;;;;;;2.88;2.55;;;;;;;20.91;100.00;100332.94;21051005;28;20094;-66
2023/07/29 00:46:50;;;;;;;2.67;2.30;;;;;;;20.90;100.00;100339.34;21075631;28;20052;-66
2023/07/29 00:56:54;;;;;;;2.53;2.33;;;;;;;20.88;100.00;100341.38;21078500;28;20706;-66
2023/07/29 01:07:08;;;;;;;2.53;2.33;;;;;;;20.88;99.86;100317.03;21060735;28;20048;-66
2023/07/29 01:17:18;;;;;;;3.00;2.70;;;;;;;20.87;99.67;100301.81;21060348;28;20459;-66
2023/07/29 01:27:19;;;;;;;2.55;2.30;;;;;;;20.85;99.63;100314.69;21035241;28;20047;-66
2023/07/29 01:37:26;;;;;;;4.57;2.30;;;;;;;20.82;99.52;100294.19;21067105;28;20048;-66
2023/07/29 01:47:28;;;;;;;2.60;2.40;;;;;;;20.82;99.20;100304.19;21058182;28;20101;-66
2023/07/29 01:57:29;;;;;;;2.47;2.28;;;;;;;20.82;98.96;100312.31;21074860;28;20055;-66
2023/07/29 02:07:31;;;;;;;2.80;2.15;;;;;;;20.81;98.70;100305.22;21072305;28;20040;-66
2023/07/29 02:17:33;;;;;;;2.85;2.58;;;;;;;20.81;98.45;100297.09;21073239;28;20044;-66
2023/07/29 02:27:35;;;;;;;2.67;2.30;;;;;;;20.81;98.39;100280.88;21059816;28;20044;-66
2023/07/29 02:37:37;;;;;;;2.33;1.80;;;;;;;20.81;98.32;100279.00;21072225;28;20048;-66
2023/07/29 02:47:39;;;;;;;2.08;1.88;;;;;;;20.83;98.01;100271.53;21070991;28;20060;-66
2023/07/29 02:57:40;;;;;;;2.00;1.80;;;;;;;20.82;97.93;100263.63;21070037;28;20046;-66
2023/07/29 03:07:42;;;;;;;1.58;1.48;;;;;;;20.82;97.60;100272.56;21068059;28;20044;-66
2023/07/29 03:17:44;;;;;;;2.05;1.85;;;;;;;20.83;97.15;100278.84;21069338;28;20117;-66
2023/07/29 03:27:49;;;;;;;1.42;1.33;;;;;;;20.78;96.86;100273.06;21053553;28;20048;-66
2023/07/29 03:37:51;;;;;;;1.65;1.55;;;;;;;20.75;96.59;100276.06;21068112;28;20052;-66
2023/07/29 03:47:53;;;;;;;1.50;1.40;;;;;;;20.75;96.33;100274.22;21067015;28;20054;-66
2023/07/29 03:57:56;;;;;;;1.90;1.50;;;;;;;20.73;95.79;100270.84;21066789;28;20094;-66
2023/07/29 04:07:58;;;;;;;1.40;1.30;;;;;;;20.71;95.70;100260.19;21066327;28;20079;-66
2023/07/29 04:17:59;;;;;;;1.40;1.30;;;;;;;20.70;95.16;100250.38;21053064;28;20087;-66
2023/07/29 04:28:03;;;;;;;1.35;1.20;;;;;;;20.70;94.63;100239.56;21071079;28;20613;-66
2023/07/29 04:38:05;;;;;;;1.30;1.00;;;;;;;20.68;94.59;100233.50;21047857;28;20055;-66
2023/07/29 04:48:06;;;;;;;1.27;1.17;;;;;;;20.72;94.63;100240.25;21028632;28;20123;-66
2023/07/29 04:58:08;;;;;;;1.10;1.00;;;;;;;20.73;94.84;100239.22;21024148;28;20127;-66
2023/07/29 05:08:10;;;;;;;1.02;0.93;;;;;;;20.77;95.88;100241.59;21005886;28;20044;-66
2023/07/29 05:18:12;;;;;;;1.10;1.00;;;;;;;20.77;95.68;100234.34;21016181;28;20063;-66
2023/07/29 05:28:13;;;;;;;0.88;0.80;;;;;;;20.77;95.57;100230.75;21041452;28;20127;-66
2023/07/29 05:38:15;;;;;;;1.85;1.00;;;;;;;20.77;95.80;100247.00;21072140;28;20631;-66
2023/07/29 05:48:17;;;;;;;1.35;1.00;;;;;;;20.77;96.08;100255.13;20986432;28;20500;-66
2023/07/29 05:58:19;;;;;;;3.30;1.42;;;;;;;20.76;96.36;100258.84;20937279;28;20056;-66
2023/07/29 06:08:21;;;;;;;2.03;1.35;;;;;;;20.79;97.23;100283.72;20950077;28;20142;-65
2023/07/29 06:18:24;;;;;;;4.28;1.08;;;;;;;20.81;97.60;100280.88;20967453;28;20044;-66
2023/07/29 06:28:26;;;;;;;2.47;1.08;;;;;;;20.94;97.73;100269.50;20945253;28;20048;-66
2023/07/29 06:38:28;;;;;;;2.42;1.63;;;;;;;21.04;97.68;100263.91;20967648;28;20053;-65
2023/07/29 06:48:29;;;;;;;1.80;1.25;;;;;;;21.09;98.55;100278.63;20952223;28;20059;-66
2023/07/29 06:58:31;;;;;;;4.50;1.40;;;;;;;21.15;98.31;100274.34;20947275;28;20048;-67
2023/07/29 07:08:33;;;;;;;1.45;1.00;;;;;;;21.27;98.71;100291.94;20970262;28;20050;-67
2023/07/29 07:18:34;;;;;;;2.78;1.00;;;;;;;21.32;98.82;100293.28;20987915;28;20117;-66
2023/07/29 07:28:36;;;;;;;2.45;1.58;;;;;;;21.36;97.84;100289.19;20961959;28;20036;-67
2023/07/29 07:38:38;;;;;;;2.53;1.70;;;;;;;21.47;96.41;100296.94;20979811;28;20141;-66
2023/07/29 07:48:40;;;;;;;3.08;1.70;;;;;;;21.49;94.93;100291.34;20971496;28;20059;-67
2023/07/29 07:58:42;;;;;;;4.07;1.60;;;;;;;21.56;94.88;100287.75;20950920;28;20113;-67
2023/07/29 08:08:44;;;;;;;2.10;1.25;;;;;;;21.73;94.14;100285.03;20935463;28;20198;-67
2023/07/29 08:18:47;;;;;;;1.27;1.17;;;;;;;21.78;93.30;100307.00;20934815;28;20342;-66
2023/07/29 08:28:49;;;;;;;2.75;1.42;;;;;;;22.02;92.83;100299.75;20939911;28;20052;-66
2023/07/29 08:38:53;;;;;;;1.98;1.20;;;;;;;22.41;88.93;100306.94;20950824;28;20486;-66
2023/07/29 08:48:55;;;;;;;3.70;1.40;;;;;;;22.43;88.81;100302.19;20975190;28;20496;-67
2023/07/29 08:58:57;;;;;;;2.13;1.50;;;;;;;22.89;87.06;100301.34;20968760;28;20435;-66
2023/07/29 09:09:00;;;;;;;4.22;1.33;;;;;;;23.22;84.56;100294.72;20986654;28;20037;-66
2023/07/29 09:19:05;;;;;;;2.58;1.60;;;;;;;23.08;85.53;100290.97;20975374;28;20184;-66
2023/07/29 09:29:07;;;;;;;3.22;1.30;;;;;;;22.89;87.32;100284.19;20994602;28;20052;-66
2023/07/29 09:39:15;;;;;;;1.60;1.38;;;;;;;22.73;88.10;100302.31;20984949;28;20060;-67
2023/07/29 09:49:16;;;;;;;2.80;1.20;;;;;;;22.67;87.77;100307.63;20999285;28;20086;-66
2023/07/29 09:59:19;;;;;;;1.42;0.90;;;;;;;22.62;88.36;100288.34;20970614;28;20060;-66
2023/07/29 10:09:21;;;;;;;3.35;1.45;;;;;;;22.55;88.39;100282.81;20961234;28;20079;-66
2023/07/29 10:19:25;;;;;;;2.28;1.27;;;;;;;22.49;88.24;100294.38;20961596;28;20597;-66
2023/07/29 10:29:32;;;;;;;2.20;1.10;;;;;;;22.41;88.02;100292.56;20964995;28;20110;-66
2023/07/29 10:39:39;;;;;;;1.52;1.17;;;;;;;22.26;88.50;100276.22;20959568;28;20047;-66
2023/07/29 10:49:42;;;;;;;1.85;1.10;;;;;;;22.33;88.93;100279.06;20958381;28;20055;-67
2023/07/29 11:00:04;;;;;;;3.80;1.27;;;;;;;22.37;89.92;100278.50;20967917;28;20037;-66
2023/07/29 11:10:06;;;;;;;4.65;1.08;;;;;;;22.37;89.11;100278.50;20950051;28;20099;-66
2023/07/29 11:20:08;;;;;;;1.90;1.10;;;;;;;22.31;88.82;100284.66;20957312;28;20040;-67
2023/07/29 11:30:11;;;;;;;2.85;1.52;;;;;;;22.21;89.51;100322.84;20961123;28;20068;-66
2023/07/29 11:40:15;;;;;;;2.28;1.20;;;;;;;22.22;90.52;100304.72;20961523;28;20439;-66
2023/07/29 11:50:16;;;;;;;2.83;1.40;;;;;;;22.24;90.64;100318.94;20962551;28;20628;-66
2023/07/29 12:00:18;;;;;;;2.17;1.45;;;;;;;22.17;91.00;100316.97;20973597;28;20044;-66
2023/07/29 12:10:21;;;;;;;3.15;1.20;;;;;;;22.18;91.17;100304.22;20952808;28;20076;-66
2023/07/29 12:20:24;;;;;;;2.10;1.20;;;;;;;22.23;90.64;100311.84;20960679;28;20393;-66
2023/07/29 12:30:26;;;;;;;2.00;1.17;;;;;;;22.23;90.27;100307.25;20946173;28;20412;-66
2023/07/29 12:40:27;;;;;;;2.13;1.55;;;;;;;22.22;89.89;100319.09;20965368;28;20040;-66
2023/07/29 12:50:29;;;;;;;1.92;1.17;;;;;;;22.23;89.66;100311.84;20975290;28;20063;-66
2023/07/29 13:00:31;;;;;;;2.15;1.30;;;;;;;22.19;89.22;100315.94;20977632;28;20044;-66
2023/07/29 13:10:33;;;;;;;2.58;1.30;;;;;;;22.16;88.67;100320.69;20973475;28;20263;-66
2023/07/29 13:20:34;;;;;;;1.65;1.20;;;;;;;22.13;88.12;100315.63;20967559;28;20049;-66
2023/07/29 13:30:36;;;;;;;2.15;1.35;;;;;;;22.12;87.51;100299.53;20969790;28;20048;-70
2023/07/29 13:40:38;;;;;;;11.57;1.60;;;;;;;22.06;87.66;100328.19;20955097;28;20143;-69
2023/07/29 13:50:41;;;;;;;5.25;1.35;;;;;;;21.97;88.44;100353.66;20977399;28;20062;-69
2023/07/29 14:00:42;;;;;;;4.18;1.52;;;;;;;21.92;89.26;100351.47;20983962;28;20052;-70
2023/07/29 14:10:44;;;;;;;2.28;1.50;;;;;;;21.88;89.67;100359.09;20962307;28;20540;-67
2023/07/29 14:20:46;;;;;;;3.38;1.42;;;;;;;21.86;90.33;100369.28;20960513;28;20079;-70
2023/07/29 14:30:47;;;;;;;2.17;1.27;;;;;;;21.86;90.82;100374.69;20958942;28;20572;-67
2023/07/29 14:40:51;;;;;;;4.47;1.75;;;;;;;21.87;91.59;100362.84;20947941;28;20499;-72
2023/07/29 14:50:53;;;;;;;1.53;1.17;;;;;;;21.86;91.95;100366.56;20957419;28;20119;-71
2023/07/29 15:00:55;;;;;;;2.40;1.58;;;;;;;21.96;95.43;100369.06;20961250;28;20048;-73
2023/07/29 15:10:56;;;;;;;3.17;1.25;;;;;;;22.06;96.72;100363.41;20969378;28;20055;-72
2023/07/29 15:20:59;;;;;;;3.45;1.88;;;;;;;22.19;98.11;100337.63;20974966;28;20546;-72
2023/07/29 15:31:01;;;;;;;5.18;2.38;;;;;;;22.27;100.00;100334.84;20966980;28;20540;-70
2023/07/29 15:41:03;;;;;;;3.80;1.70;;;;;;;22.32;99.56;100340.56;20936254;28;20053;-71
2023/07/29 15:51:05;;;;;;;4.20;1.77;;;;;;;22.33;98.92;100339.56;20949942;28;20051;-71
2023/07/29 16:01:07;;;;;;;6.07;1.73;;;;;;;22.30;98.10;100331.78;20961789;28;20051;-73
2023/07/29 16:11:09;;;;;;;3.65;1.50;;;;;;;22.27;99.92;100321.28;20951518;28;20052;-69
2023/07/29 16:21:11;;;;;;;3.30;1.27;;;;;;;22.22;98.07;100329.94;20968114;28;20048;-70
2023/07/29 16:31:13;;;;;;;2.75;1.30;;;;;;;22.19;96.33;100332.19;20977585;28;20580;-66
2023/07/29 16:41:15;;;;;;;4.20;1.35;;;;;;;22.14;95.25;100333.59;20995119;28;20076;-66
2023/07/29 16:51:37;;;;;;;2.67;1.25;;;;;;;22.09;94.78;100321.56;20965599;28;20040;-66
2023/07/29 17:01:38;;;;;;;2.05;1.10;;;;;;;22.07;94.59;100313.59;20988587;28;20136;-66
2023/07/29 17:11:40;;;;;;;2.72;1.20;;;;;;;22.07;94.14;100320.91;21032651;28;20075;-67
2023/07/29 17:21:42;;;;;;;3.10;1.05;;;;;;;22.04;93.70;100321.28;20997734;28;20728;-66
2023/07/29 17:31:44;;;;;;;2.50;1.13;;;;;;;22.02;93.58;100316.00;20979051;28;20377;-66
2023/07/29 17:41:46;;;;;;;4.78;1.25;;;;;;;21.97;92.93;100329.25;21014591;28;20135;-66
2023/07/29 17:51:48;;;;;;;1.42;1.00;;;;;;;21.93;93.17;100339.63;21007812;28;20037;-66
2023/07/29 18:01:50;;;;;;;3.92;1.30;;;;;;;21.91;93.15;100352.50;20907167;28;20460;-66
2023/07/29 18:11:53;;;;;;;3.60;1.20;;;;;;;21.87;92.73;100351.13;21038863;28;20554;-66
2023/07/29 18:21:54;;;;;;;3.38;1.15;;;;;;;21.86;92.94;100361.16;20974970;28;20059;-66
2023/07/29 18:31:56;;;;;;;2.22;1.10;;;;;;;21.84;92.71;100373.16;20976742;28;20474;-66
2023/07/29 18:41:58;;;;;;;1.98;1.20;;;;;;;21.83;92.40;100371.47;20921533;28;20044;-66
2023/07/29 18:51:59;;;;;;;2.28;1.50;;;;;;;21.82;93.10;100386.91;20924849;28;20132;-66
2023/07/29 19:02:01;;;;;;;3.78;1.75;;;;;;;21.81;94.27;100395.19;20982122;28;20062;-66
2023/07/29 19:12:03;;;;;;;3.20;1.27;;;;;;;21.80;94.50;100398.94;20983057;28;20420;-66
2023/07/29 19:22:05;;;;;;;4.85;2.10;;;;;;;21.77;94.50;100407.41;20994482;28;20071;-66
2023/07/29 19:32:07;;;;;;;3.22;1.42;;;;;;;21.70;93.67;100399.16;20992515;28;20048;-66
2023/07/29 19:42:09;;;;;;;2.45;1.52;;;;;;;21.67;93.11;100399.50;20991548;28;20036;-66
2023/07/29 19:52:11;;;;;;;2.22;1.17;;;;;;;21.62;92.46;100401.81;20975881;28;20094;-66
2023/07/29 20:02:12;;;;;;;2.38;1.40;;;;;;;21.58;92.07;100404.88;21012603;28;20053;-66
2023/07/29 20:12:14;;;;;;;2.85;1.38;;;;;;;21.56;91.85;100409.63;20993506;28;20075;-66
2023/07/29 20:22:16;;;;;;;3.17;1.58;;;;;;;21.55;91.56;100428.78;20980976;28;20520;-66
2023/07/29 20:32:17;;;;;;;2.17;1.27;;;;;;;21.52;91.28;100421.00;20985694;28;20052;-66
2023/07/29 20:42:19;;;;;;;1.63;1.25;;;;;;;21.50;91.07;100426.56;21010662;28;20081;-66
2023/07/29 20:52:21;;;;;;;2.60;1.40;;;;;;;21.47;90.80;100432.34;20963732;28;20075;-66
2023/07/29 21:02:22;;;;;;;2.47;1.45;;;;;;;21.46;90.45;100435.22;20994575;28;20123;-66
2023/07/29 21:12:24;;;;;;;3.08;1.50;;;;;;;21.44;90.27;100429.97;20994966;28;20072;-66
2023/07/29 21:22:26;;;;;;;1.73;1.10;;;;;;;21.43;89.69;100420.16;20983112;28;20048;-66
2023/07/29 21:32:28;;;;;;;1.60;1.10;;;;;;;21.41;89.44;100427.59;20910393;28;20493;-66
2023/07/29 21:42:29;;;;;;;2.75;1.55;;;;;;;21.39;89.08;100429.66;21072774;28;20071;-66
2023/07/29 21:52:31;;;;;;;2.47;1.50;;;;;;;21.36;88.58;100432.69;21040581;28;20069;-66
2023/07/29 22:02:33;;;;;;;2.00;1.45;;;;;;;21.33;88.26;100423.03;21027550;28;20048;-66
2023/07/29 22:12:34;;;;;;;1.35;1.23;;;;;;;21.32;87.85;100426.75;21029472;28;20106;-66
2023/07/29 22:22:36;;;;;;;2.40;1.40;;;;;;;21.30;87.67;100421.53;20991881;28;20049;-66
2023/07/29 22:32:38;;;;;;;1.83;1.30;;;;;;;21.28;87.43;100426.28;21013028;28;20516;-66
2023/07/29 22:42:40;;;;;;;2.17;1.33;;;;;;;21.27;87.07;100431.84;21016346;28;20040;-66
2023/07/29 22:52:41;;;;;;;1.90;1.33;;;;;;;21.24;86.93;100443.88;20987024;28;20080;-66
2023/07/29 23:02:43;;;;;;;2.08;1.40;;;;;;;21.23;86.71;100447.59;20999989;28;20051;-66
2023/07/29 23:12:45;;;;;;;2.00;1.40;;;;;;;21.21;86.59;100446.94;21016947;28;20048;-66
2023/07/29 23:22:46;;;;;;;2.17;1.70;;;;;;;21.20;86.36;100442.50;21003728;28;20113;-66
2023/07/29 23:32:48;;;;;;;2.05;1.63;;;;;;;21.19;86.27;100457.06;20983689;28;20071;-66
2023/07/29 23:42:50;;;;;;;2.75;1.45;;;;;;;21.14;86.10;100457.56;20983902;28;20058;-66
2023/07/29 23:52:51;;;;;;;2.33;1.73;;;;;;;21.18;86.10;100458.06;20983446;28;20052;-66
